This is the latest recevied weather packets stored in our database for station/object WMSA. If no packets are shown the sender has not sent any weather packets the latest 10 day(s).
| Time | Temp. | Humidity | Pressure | Rain* | Wind** | Luminosity | Snow |
|---|---|---|---|---|---|---|---|
| 1788038052 | 26.67° C | 78% | 1011 hPa | - | - | - | - |
| 1788034451 | 27.78° C | 69% | 1011 hPa | - | - | - | - |
| 1788027251 | 27.78° C | 65% | 1011 hPa | - | - | - | - |
| 1788023652 | 28.89° C | 74% | 1012 hPa | - | - | - | - |
| 1788020050 | 30° C | 70% | 1012 hPa | - | - | - | - |
| 1788016455 | 28.89° C | 79% | 1011 hPa | - | - | - | - |
| 1788009252 | 30° C | 70% | 1010 hPa | - | - | - | - |
| 1788005043 | 32.78° C | 59% | 1008 hPa | - | - | - | - |
| 1788002055 | 32.78° C | 59% | 1008 hPa | - | - | - | - |
| 1787998450 | 32.78° C | 55% | 1007 hPa | - | - | - | - |
| 1787994851 | 33.89° C | 52% | 1008 hPa | - | - | - | - |
| 1787991250 | 33.89° C | 56% | 1008 hPa | - | - | - | - |
| 1787987654 | 35° C | 49% | 1009 hPa | - | - | - | - |
| 1787984050 | 35° C | 49% | 1009 hPa | - | - | - | - |
| 1787980451 | 35° C | 46% | 1010 hPa | - | - | - | - |
| 1787976849 | 33.89° C | 52% | 1011 hPa | - | - | - | - |
| 1787973254 | 32.78° C | 52% | 1012 hPa | - | - | - | - |
| 1787969649 | 31.67° C | 59% | 1012 hPa | - | - | - | - |
| 1787966051 | 30° C | 74% | 1011 hPa | - | - | - | - |
| 1787962449 | 27.78° C | 83% | 1010 hPa | - | - | - | - |
* Rain since midnight (hover to see other rain measurements)
** Current wind speed in m/s (hover to see current wind gust speed)